createdAt,value
2019-05-10T00:00:05.291Z,95.22
2019-05-10T00:03:14.618Z,95.34
2019-05-10T00:06:24.636Z,94.67
2019-05-10T00:09:14.408Z,94.40
2019-05-10T00:12:29.666Z,94.54
2019-05-10T00:15:25.504Z,94.67
2019-05-10T00:18:20.463Z,94.25
2019-05-10T00:21:17.253Z,94.38
2019-05-10T00:24:13.825Z,94.82
2019-05-10T00:27:09.384Z,94.01
2019-05-10T00:30:06.938Z,93.52
2019-05-10T00:33:02.500Z,93.52
2019-05-10T00:35:59.108Z,93.49
2019-05-10T00:38:54.648Z,93.29
2019-05-10T00:41:51.157Z,93.11
2019-05-10T00:44:52.484Z,93.32
2019-05-10T00:47:55.280Z,92.88
2019-05-10T00:50:52.439Z,93.37
2019-05-10T00:53:48.096Z,93.83
2019-05-10T00:56:44.500Z,95.61
2019-05-10T00:59:40.060Z,100.00
2019-05-10T01:02:36.364Z,100.00
2019-05-10T01:05:32.778Z,100.00
2019-05-10T01:08:29.518Z,100.00
2019-05-10T01:11:26.006Z,100.00
2019-05-10T01:14:21.645Z,100.00
2019-05-10T01:17:18.210Z,100.00
2019-05-10T01:20:15.170Z,100.00
2019-05-10T01:23:10.708Z,100.00
2019-05-10T01:26:06.627Z,100.00
2019-05-10T01:29:02.248Z,100.00
2019-05-10T01:32:00.006Z,100.00
2019-05-10T01:34:57.656Z,100.00
2019-05-10T01:37:58.112Z,100.00
2019-05-10T01:41:02.206Z,100.00
2019-05-10T01:44:04.279Z,100.00
2019-05-10T01:47:01.213Z,100.00
2019-05-10T01:50:00.776Z,100.00
2019-05-10T01:52:58.801Z,100.00
2019-05-10T01:55:55.352Z,100.00
2019-05-10T01:58:51.726Z,100.00
2019-05-10T02:01:48.471Z,100.00
2019-05-10T02:04:44.545Z,100.00
2019-05-10T02:07:42.300Z,100.00
2019-05-10T02:10:40.046Z,100.00
2019-05-10T02:13:35.590Z,100.00
2019-05-10T02:16:32.387Z,100.00
2019-05-10T02:19:29.019Z,100.00
2019-05-10T02:22:25.615Z,100.00
2019-05-10T02:25:21.440Z,100.00
2019-05-10T02:28:17.936Z,100.00
2019-05-10T02:31:14.359Z,100.00
2019-05-10T02:34:11.167Z,100.00
2019-05-10T02:37:07.981Z,100.00
2019-05-10T02:40:03.416Z,100.00
2019-05-10T02:43:00.258Z,100.00
2019-05-10T02:45:55.265Z,100.00
2019-05-10T02:48:52.871Z,100.00
2019-05-10T02:51:50.731Z,100.00
2019-05-10T02:54:46.381Z,100.00
2019-05-10T02:57:47.135Z,100.00
2019-05-10T03:00:43.074Z,100.00
2019-05-10T03:03:40.718Z,100.00
2019-05-10T03:06:41.354Z,100.00
2019-05-10T03:09:37.922Z,100.00
2019-05-10T03:12:46.312Z,100.00
2019-05-10T03:15:43.057Z,100.00
2019-05-10T03:18:40.928Z,100.00
2019-05-10T03:21:36.551Z,100.00
2019-05-10T03:24:33.588Z,100.00
2019-05-10T03:27:30.143Z,100.00
2019-05-10T03:30:25.804Z,100.00
2019-05-10T03:33:22.482Z,100.00
2019-05-10T03:36:19.875Z,100.00
2019-05-10T03:39:17.462Z,100.00
2019-05-10T03:42:12.883Z,100.00
2019-05-10T03:45:09.748Z,100.00
2019-05-10T03:48:06.476Z,100.00
2019-05-10T03:51:04.553Z,100.00
2019-05-10T03:54:01.861Z,100.00
2019-05-10T03:57:13.247Z,100.00
2019-05-10T04:00:11.274Z,100.00
2019-05-10T04:03:07.092Z,100.00
2019-05-10T04:06:02.205Z,100.00
2019-05-10T04:08:59.076Z,100.00
2019-05-10T04:11:54.349Z,100.00
2019-05-10T04:14:52.289Z,100.00
2019-05-10T04:17:50.391Z,100.00
2019-05-10T04:20:45.621Z,100.00
2019-05-10T04:23:41.362Z,100.00
2019-05-10T04:26:36.698Z,100.00
2019-05-10T04:29:33.565Z,100.00
2019-05-10T04:32:30.252Z,100.00
2019-05-10T04:35:27.062Z,100.00
2019-05-10T04:38:22.914Z,100.00
2019-05-10T04:41:20.420Z,100.00
2019-05-10T04:44:15.977Z,100.00
2019-05-10T04:47:11.818Z,100.00
2019-05-10T04:50:08.421Z,100.00
2019-05-10T04:53:07.079Z,100.00
2019-05-10T04:56:03.765Z,100.00
2019-05-10T04:58:59.440Z,100.00
2019-05-10T05:01:57.027Z,100.00
2019-05-10T05:04:52.627Z,100.00
2019-05-10T05:07:50.464Z,100.00
2019-05-10T05:10:48.251Z,100.00
2019-05-10T05:13:44.069Z,100.00
2019-05-10T05:16:41.876Z,100.00
2019-05-10T05:19:40.734Z,100.00
2019-05-10T05:22:34.183Z,100.00
2019-05-10T05:25:29.815Z,100.00
2019-05-10T05:28:25.640Z,100.00
2019-05-10T05:31:27.449Z,100.00
2019-05-10T05:34:23.469Z,100.00
2019-05-10T05:37:24.783Z,100.00
2019-05-10T05:40:20.436Z,100.00
2019-05-10T05:43:17.093Z,100.00
2019-05-10T05:46:14.616Z,100.00
2019-05-10T05:49:09.624Z,100.00
2019-05-10T05:52:08.304Z,100.00
2019-05-10T05:55:05.161Z,100.00
2019-05-10T05:58:04.705Z,100.00
2019-05-10T06:01:03.382Z,100.00
2019-05-10T06:04:06.480Z,100.00
2019-05-10T06:06:59.047Z,100.00
2019-05-10T06:09:53.101Z,100.00
2019-05-10T06:12:59.146Z,100.00
2019-05-10T06:16:00.138Z,100.00
2019-05-10T06:18:53.867Z,100.00
2019-05-10T06:21:51.825Z,100.00
2019-05-10T06:24:52.510Z,100.00
2019-05-10T06:27:44.220Z,100.00
2019-05-10T06:30:53.552Z,100.00
2019-05-10T06:33:49.267Z,100.00
2019-05-10T06:36:46.007Z,100.00
2019-05-10T06:39:41.688Z,100.00
2019-05-10T06:42:39.993Z,100.00
2019-05-10T06:45:35.391Z,98.71
2019-05-10T06:48:43.719Z,97.17
2019-05-10T06:51:43.094Z,96.99
2019-05-10T06:54:38.418Z,96.62
2019-05-10T06:57:36.344Z,94.84
2019-05-10T07:00:32.031Z,95.66
2019-05-10T07:03:29.384Z,93.90
2019-05-10T07:06:30.261Z,94.27
2019-05-10T07:09:26.101Z,93.30
2019-05-10T07:12:30.179Z,91.73
2019-05-10T07:15:35.682Z,92.21
2019-05-10T07:18:29.785Z,90.54
2019-05-10T07:21:38.870Z,90.24
2019-05-10T07:24:35.152Z,91.88
2019-05-10T07:27:36.535Z,89.51
2019-05-10T07:30:28.663Z,90.52
2019-05-10T07:33:32.252Z,91.72
2019-05-10T07:36:30.636Z,90.94
2019-05-10T07:39:25.516Z,89.95
2019-05-10T07:42:33.516Z,89.08
2019-05-10T07:45:30.388Z,90.06
2019-05-10T07:48:34.280Z,90.80
2019-05-10T07:51:31.155Z,91.06
2019-05-10T07:54:29.421Z,92.24
2019-05-10T07:57:27.031Z,92.02
2019-05-10T08:00:25.222Z,91.59
2019-05-10T08:03:35.538Z,92.48
2019-05-10T08:06:40.207Z,90.47
2019-05-10T08:09:31.515Z,91.30
2019-05-10T08:12:35.294Z,90.82
2019-05-10T08:15:34.983Z,92.03
2019-05-10T08:18:29.456Z,91.52
2019-05-10T08:21:27.657Z,88.05
2019-05-10T08:24:32.764Z,87.55
2019-05-10T08:27:27.241Z,89.00
2019-05-10T08:30:29.004Z,88.68
2019-05-10T08:33:23.271Z,88.56
2019-05-10T08:36:21.898Z,88.54
2019-05-10T08:39:17.192Z,88.13
2019-05-10T08:42:32.599Z,87.77
2019-05-10T08:45:12.582Z,84.00
2019-05-10T08:48:15.043Z,83.44
2019-05-10T08:51:12.677Z,83.88
2019-05-10T08:54:13.144Z,85.26
2019-05-10T09:00:17.374Z,81.94
2019-05-10T09:03:18.634Z,81.48
2019-05-10T09:06:29.164Z,81.64
2019-05-10T09:09:24.914Z,83.00
2019-05-10T09:12:25.864Z,84.39
2019-05-10T09:15:22.832Z,85.42
2019-05-10T09:18:19.481Z,83.52
2019-05-10T09:21:17.382Z,82.19
2019-05-10T09:24:14.677Z,79.67
2019-05-10T09:27:16.449Z,79.38
2019-05-10T09:30:18.120Z,78.25
2019-05-10T09:33:11.433Z,76.12
2019-05-10T09:36:05.766Z,75.11
2019-05-10T09:39:03.423Z,72.57
2019-05-10T09:42:07.711Z,72.48
2019-05-10T09:45:02.885Z,71.06
2019-05-10T09:47:57.978Z,72.73
2019-05-10T09:51:00.633Z,70.12
2019-05-10T09:53:54.058Z,69.41
2019-05-10T09:56:52.077Z,71.61
2019-05-10T09:59:47.076Z,72.36
2019-05-10T10:03:01.622Z,70.54
2019-05-10T10:06:05.626Z,66.73
2019-05-10T10:08:54.221Z,68.44
2019-05-10T10:12:00.918Z,66.62
2019-05-10T10:14:52.937Z,66.55
2019-05-10T10:17:48.212Z,66.32
2019-05-10T10:20:48.084Z,63.56
2019-05-10T10:23:42.725Z,67.91
2019-05-10T10:26:39.464Z,68.79
2019-05-10T10:29:36.552Z,65.77
2019-05-10T10:32:34.959Z,62.87
2019-05-10T10:35:33.321Z,62.15
2019-05-10T10:38:44.749Z,61.77
2019-05-10T10:41:33.735Z,61.11
2019-05-10T10:44:29.950Z,63.53
2019-05-10T10:47:32.545Z,64.57
2019-05-10T10:50:28.810Z,62.84
2019-05-10T10:53:28.209Z,64.18
2019-05-10T10:56:29.011Z,64.56
2019-05-10T10:59:30.467Z,64.51
2019-05-10T11:02:33.191Z,65.05
2019-05-10T11:05:26.490Z,65.88
2019-05-10T11:08:24.042Z,67.42
2019-05-10T11:11:30.832Z,69.52
2019-05-10T11:14:22.481Z,70.35
2019-05-10T11:17:20.011Z,69.79
2019-05-10T11:20:16.849Z,71.26
2019-05-10T11:23:16.303Z,70.69
2019-05-10T11:26:13.369Z,69.47
2019-05-10T11:29:14.193Z,69.12
2019-05-10T11:32:16.332Z,69.24
2019-05-10T11:35:11.973Z,66.42
2019-05-10T11:38:11.540Z,65.92
2019-05-10T11:41:07.004Z,65.18
2019-05-10T11:44:05.272Z,64.10
2019-05-10T11:46:58.002Z,63.35
2019-05-10T11:49:55.680Z,62.33
2019-05-10T11:52:53.164Z,63.84
2019-05-10T11:55:51.701Z,62.85
2019-05-10T11:58:54.891Z,62.00
2019-05-10T12:01:43.000Z,59.34
2019-05-10T12:04:43.410Z,57.99
2019-05-10T12:07:43.390Z,58.73
2019-05-10T12:10:35.337Z,60.65
2019-05-10T12:13:38.896Z,60.26
2019-05-10T12:16:37.478Z,58.63
2019-05-10T12:22:37.922Z,61.79
2019-05-10T12:25:57.365Z,61.18
2019-05-10T12:26:49.372Z,60.36
2019-05-10T12:28:36.821Z,61.63
2019-05-10T12:31:34.397Z,63.04
2019-05-10T12:34:31.228Z,63.60
2019-05-10T12:37:30.821Z,64.36
2019-05-10T12:40:27.486Z,65.38
2019-05-10T12:43:23.318Z,65.08
2019-05-10T12:46:20.812Z,65.64
2019-05-10T12:49:17.228Z,66.08
2019-05-10T12:52:27.729Z,63.34
2019-05-10T12:55:21.747Z,64.51
2019-05-10T12:58:19.213Z,63.86
2019-05-10T13:01:16.720Z,62.34
2019-05-10T13:04:14.556Z,61.57
2019-05-10T13:07:11.476Z,63.69
2019-05-10T13:10:09.330Z,63.07
2019-05-10T13:13:05.210Z,63.16
2019-05-10T13:16:09.369Z,63.07
2019-05-10T13:18:58.382Z,64.57
2019-05-10T13:21:58.875Z,63.69
2019-05-10T13:24:53.895Z,64.59
2019-05-10T13:27:52.470Z,64.96
2019-05-10T13:30:50.869Z,63.85
2019-05-10T13:33:47.368Z,64.73
2019-05-10T13:36:45.381Z,65.15
2019-05-10T13:39:41.704Z,65.63
2019-05-10T13:42:45.656Z,67.07
2019-05-10T13:45:37.613Z,68.06
2019-05-10T13:48:33.830Z,65.68
2019-05-10T13:51:31.229Z,65.68
2019-05-10T13:54:31.275Z,65.01
2019-05-10T13:57:25.734Z,65.43
2019-05-10T14:00:22.147Z,64.88
2019-05-10T14:03:19.474Z,63.99
2019-05-10T14:06:15.057Z,64.79
2019-05-10T14:09:13.397Z,62.51
2019-05-10T14:12:10.098Z,61.85
2019-05-10T14:15:09.083Z,62.44
2019-05-10T14:18:03.612Z,62.84
2019-05-10T14:21:01.224Z,63.52
2019-05-10T14:23:58.722Z,60.51
2019-05-10T14:26:57.694Z,59.21
2019-05-10T14:29:53.819Z,59.21
2019-05-10T14:32:53.312Z,59.49
2019-05-10T14:35:55.157Z,58.38
2019-05-10T14:38:53.840Z,55.38
2019-05-10T14:41:51.159Z,57.23
2019-05-10T14:44:43.456Z,51.60
2019-05-10T14:47:47.518Z,53.10
2019-05-10T14:50:35.840Z,53.65
2019-05-10T14:53:32.527Z,51.23
2019-05-10T14:56:28.039Z,49.41
2019-05-10T14:59:24.952Z,51.17
2019-05-10T15:02:22.477Z,51.64
2019-05-10T15:05:18.261Z,47.36
2019-05-10T15:08:13.982Z,46.78
2019-05-10T15:11:09.659Z,47.96
2019-05-10T15:14:06.026Z,46.49
2019-05-10T15:17:01.898Z,44.30
2019-05-10T15:20:00.116Z,44.76
2019-05-10T15:22:55.213Z,46.78
2019-05-10T15:26:04.029Z,47.17
2019-05-10T15:28:56.755Z,47.33
2019-05-10T15:31:54.939Z,48.32
2019-05-10T15:35:06.326Z,48.21
2019-05-10T15:37:50.733Z,45.96
2019-05-10T15:40:49.920Z,46.67
2019-05-10T15:43:48.825Z,43.79
2019-05-10T15:46:44.616Z,46.24
2019-05-10T15:49:43.279Z,47.02
2019-05-10T15:52:46.594Z,46.38
2019-05-10T15:55:37.140Z,47.75
2019-05-10T15:58:36.616Z,44.36
2019-05-10T16:01:31.525Z,42.87
2019-05-10T16:04:28.333Z,45.60
2019-05-10T16:07:25.963Z,44.94
2019-05-10T16:10:28.345Z,45.24
2019-05-10T16:13:24.605Z,44.09
2019-05-10T16:19:12.765Z,45.37
2019-05-10T16:22:06.569Z,45.17
2019-05-10T16:25:02.942Z,46.47
2019-05-10T16:28:01.393Z,47.44
2019-05-10T16:31:00.703Z,45.93
2019-05-10T16:33:57.961Z,47.80
2019-05-10T16:36:56.406Z,47.29
2019-05-10T16:39:53.511Z,48.43
2019-05-10T16:42:51.097Z,49.83
2019-05-10T16:45:47.015Z,50.83
2019-05-10T16:48:44.432Z,52.00
2019-05-10T16:51:47.891Z,51.76
2019-05-10T16:54:39.977Z,52.58
2019-05-10T16:57:39.358Z,53.66
2019-05-10T17:00:33.716Z,53.97
2019-05-10T17:03:31.108Z,54.47
2019-05-10T17:06:28.489Z,54.35
2019-05-10T17:09:24.156Z,54.55
2019-05-10T17:12:22.026Z,55.71
2019-05-10T17:15:18.023Z,56.26
2019-05-10T17:18:17.593Z,56.14
2019-05-10T17:21:11.874Z,56.45
2019-05-10T17:24:10.241Z,57.51
2019-05-10T17:27:07.718Z,57.64
2019-05-10T17:30:03.928Z,57.39
2019-05-10T17:33:03.902Z,57.59
2019-05-10T17:36:07.815Z,57.43
2019-05-10T17:38:56.193Z,57.32
2019-05-10T17:41:57.609Z,58.02
2019-05-10T17:44:55.286Z,57.93
2019-05-10T17:47:48.297Z,58.74
2019-05-10T17:50:46.104Z,59.76
2019-05-10T17:53:42.971Z,58.79
2019-05-10T17:56:40.626Z,60.23
2019-05-10T17:59:36.680Z,60.71
2019-05-10T18:02:35.081Z,61.25
2019-05-10T18:05:31.464Z,60.20
2019-05-10T18:08:28.802Z,60.78
2019-05-10T18:11:26.132Z,61.44
2019-05-10T18:14:23.213Z,61.24
2019-05-10T18:17:20.810Z,60.94
2019-05-10T18:20:16.844Z,61.56
2019-05-10T18:23:21.279Z,62.38
2019-05-10T18:26:11.859Z,62.66
2019-05-10T18:29:09.527Z,63.43
2019-05-10T18:32:10.867Z,61.88
2019-05-10T18:35:13.176Z,63.27
2019-05-10T18:38:02.396Z,64.70
2019-05-10T18:40:59.565Z,63.18
2019-05-10T18:43:57.396Z,64.25
2019-05-10T18:46:53.838Z,66.50
2019-05-10T18:49:51.215Z,67.77
2019-05-10T18:52:51.071Z,68.62
2019-05-10T18:55:49.579Z,70.31
2019-05-10T18:58:47.007Z,71.48
2019-05-10T19:01:44.601Z,70.72
2019-05-10T19:04:45.953Z,70.72
2019-05-10T19:07:42.898Z,71.95
2019-05-10T19:10:40.133Z,73.24
2019-05-10T19:13:47.359Z,74.04
2019-05-10T19:16:35.981Z,74.43
2019-05-10T19:19:35.293Z,74.48
2019-05-10T19:22:35.741Z,75.58
2019-05-10T19:25:33.339Z,76.23
2019-05-10T19:28:30.340Z,76.15
2019-05-10T19:31:37.767Z,77.15
2019-05-10T19:34:28.916Z,77.86
2019-05-10T19:37:30.004Z,78.63
2019-05-10T19:40:23.599Z,79.98
2019-05-10T19:43:21.815Z,80.57
2019-05-10T19:46:17.906Z,81.44
2019-05-10T19:49:16.384Z,82.18
2019-05-10T19:52:25.603Z,82.67
2019-05-10T19:55:19.491Z,83.71
2019-05-10T19:58:14.210Z,84.33
2019-05-10T20:01:11.475Z,84.37
2019-05-10T20:04:09.498Z,85.13
2019-05-10T20:07:04.846Z,85.64
2019-05-10T20:10:01.048Z,85.94
2019-05-10T20:12:59.448Z,85.86
2019-05-10T20:16:01.116Z,85.84
2019-05-10T20:18:56.463Z,86.08
2019-05-10T20:21:53.662Z,86.07
2019-05-10T20:24:49.950Z,86.47
2019-05-10T20:27:47.480Z,86.70
2019-05-10T20:30:43.150Z,86.64
2019-05-10T20:33:40.626Z,86.99
2019-05-10T20:36:37.259Z,87.55
2019-05-10T20:39:32.709Z,88.03
2019-05-10T20:42:30.654Z,88.82
2019-05-10T20:45:25.821Z,88.75
2019-05-10T20:48:22.483Z,89.07
2019-05-10T20:51:19.085Z,89.86
2019-05-10T20:54:15.936Z,90.43
2019-05-10T20:57:13.612Z,90.81
2019-05-10T21:00:09.149Z,91.71
2019-05-10T21:03:06.725Z,92.35
2019-05-10T21:06:02.385Z,92.53
2019-05-10T21:08:58.701Z,92.84
2019-05-10T21:11:55.254Z,92.97
2019-05-10T21:14:50.901Z,93.63
2019-05-10T21:17:47.478Z,93.75
2019-05-10T21:20:43.013Z,93.71
2019-05-10T21:23:40.647Z,94.16
2019-05-10T21:26:36.230Z,94.40
2019-05-10T21:29:33.160Z,94.34
2019-05-10T21:32:30.039Z,94.48
2019-05-10T21:35:31.928Z,94.35
2019-05-10T21:38:32.977Z,94.08
2019-05-10T21:41:24.286Z,93.83
2019-05-10T21:44:23.103Z,94.25
2019-05-10T21:47:18.760Z,94.11
2019-05-10T21:50:15.474Z,93.79
2019-05-10T21:53:11.650Z,94.47
2019-05-10T21:56:08.266Z,95.11
2019-05-10T21:59:04.928Z,94.84
2019-05-10T22:02:01.952Z,94.86
2019-05-10T22:04:59.701Z,94.88
2019-05-10T22:07:56.340Z,94.70
2019-05-10T22:10:52.113Z,94.26
2019-05-10T22:13:48.730Z,94.25
2019-05-10T22:16:44.237Z,94.33
2019-05-10T22:19:45.989Z,94.78
2019-05-10T22:22:45.941Z,94.69
2019-05-10T22:25:43.506Z,94.25
2019-05-10T22:28:40.450Z,93.32
2019-05-10T22:31:36.095Z,93.62
2019-05-10T22:34:33.851Z,93.79
2019-05-10T22:37:30.018Z,94.13
2019-05-10T22:40:27.207Z,93.74
2019-05-10T22:43:25.498Z,93.58
2019-05-10T22:46:23.209Z,93.56
2019-05-10T22:49:19.676Z,93.89
2019-05-10T22:52:15.799Z,93.80
2019-05-10T22:55:15.090Z,93.57
2019-05-10T22:58:11.362Z,94.06
2019-05-10T23:01:08.613Z,94.27
2019-05-10T23:04:05.963Z,93.76
2019-05-10T23:07:02.099Z,93.37
2019-05-10T23:10:03.872Z,92.95
2019-05-10T23:13:01.115Z,93.32
2019-05-10T23:15:57.959Z,93.37
2019-05-10T23:18:53.765Z,93.31
2019-05-10T23:21:51.253Z,93.51
2019-05-10T23:24:51.197Z,94.01
2019-05-10T23:27:47.632Z,94.40
2019-05-10T23:30:44.888Z,94.74
2019-05-10T23:33:41.079Z,94.88
2019-05-10T23:36:39.527Z,95.63
2019-05-10T23:39:40.863Z,95.99
2019-05-10T23:42:32.066Z,96.42
2019-05-10T23:45:28.776Z,96.45
2019-05-10T23:48:26.173Z,96.67
2019-05-10T23:51:23.645Z,97.67
2019-05-10T23:54:20.948Z,98.28
2019-05-10T23:57:19.208Z,98.24
